3D2

Ephraim-Gibraltar Airport

Ephraim, Wisconsin, USA
METAR K3D2 261315Z AUTO 24007KT 10SM CLR 06/00 A2988 RMK AO2 T00550002
Observed Flight Rules
Apr-26 @ 13:15 UTC (23 minutes ago) Visual Flight Rules
Wind Visibility Clouds
240° at 7 knots 10 miles
  • Clear skies
Temperatures Readings
Current 6°C / 43°F
Dewpoint 0°C / 32°F
Humidity 66%
Altimeter 29.88" Hg
Pressure 1012 hPa
Elevation 234
METAR K3D2 261315Z AUTO 24007KT 10SM CLR 06/00 A2988 RMK AO2 T00550002
Observed Flight Rules
Apr-26 @ 13:15 UTC
(23 minutes ago)
VFR
Wind Visibility
240° at 7 knots 10 miles
Clouds
  • Clear skies
Temperature Dewpoint
6°C / 43°F 0°C / 32°F
Humidity Altimeter Pressure
66% 29.88" Hg 1012 hPa